Gerry, New York
Current Conditions -  °F | °C
As of 3:55 AM on Friday 28 Nov 2014 (Local Time) from KJHW Reporting Station
Overcast Overcast  
Wind Chill:   Ceiling: 3200
Heat Index: 21°   Visibility: 6mi
Dew Point: 16°   Wind: 12mph
Humidity: 80%   Direction: 290°WNW
Pressure: 30.14"   Gusts: NA
Location:  42.19°N, 79.25°W
Report Text: KJHW 280855Z 29010KT 6SM FEW026 BKN032 OVC038 M06/M09 A3014 RMK AO1 52014
Loading
Personal Weather Stations






























Interactive Weather Map New forecast layout! Learn more

10-Day Weather Forecast

Advertisements
Track Severe Weather on mobile